sensor_id;sensor_type;location;lat;lon;timestamp;pressure;altitude;pressure_sealevel;temperature;humidity
54808;BME280;40708;50.364;7.550;2023-03-26T00:01:34;99808.00;;;8.48;100.00
54808;BME280;40708;50.364;7.550;2023-03-26T00:04:04;99810.63;;;8.40;100.00
54808;BME280;40708;50.364;7.550;2023-03-26T00:06:32;99811.53;;;8.42;100.00
54808;BME280;40708;50.364;7.550;2023-03-26T00:09:00;99821.22;;;8.45;100.00
54808;BME280;40708;50.364;7.550;2023-03-26T00:11:27;99824.72;;;8.44;100.00
54808;BME280;40708;50.364;7.550;2023-03-26T00:13:54;99828.25;;;8.47;100.00
54808;BME280;40708;50.364;7.550;2023-03-26T00:16:23;99824.72;;;8.54;100.00
54808;BME280;40708;50.364;7.550;2023-03-26T00:18:49;99816.78;;;8.63;100.00
54808;BME280;40708;50.364;7.550;2023-03-26T00:21:17;99815.00;;;8.59;100.00
54808;BME280;40708;50.364;7.550;2023-03-26T00:23:44;99817.66;;;8.58;100.00
54808;BME280;40708;50.364;7.550;2023-03-26T00:26:11;99822.06;;;8.56;100.00
54808;BME280;40708;50.364;7.550;2023-03-26T00:28:38;99824.72;;;8.54;100.00
54808;BME280;40708;50.364;7.550;2023-03-26T00:31:05;99825.59;;;8.52;100.00
54808;BME280;40708;50.364;7.550;2023-03-26T00:33:31;99820.31;;;8.53;100.00
54808;BME280;40708;50.364;7.550;2023-03-26T00:35:58;99822.94;;;8.58;100.00
54808;BME280;40708;50.364;7.550;2023-03-26T00:38:26;99821.19;;;8.57;100.00
54808;BME280;40708;50.364;7.550;2023-03-26T00:40:52;99823.84;;;8.55;100.00
54808;BME280;40708;50.364;7.550;2023-03-26T00:43:19;99826.47;;;8.52;100.00
54808;BME280;40708;50.364;7.550;2023-03-26T00:45:51;99814.16;;;8.53;100.00
54808;BME280;40708;50.364;7.550;2023-03-26T00:48:18;99821.19;;;8.51;100.00
54808;BME280;40708;50.364;7.550;2023-03-26T00:50:45;99815.91;;;8.46;100.00
54808;BME280;40708;50.364;7.550;2023-03-26T00:53:12;99803.59;;;8.45;100.00
54808;BME280;40708;50.364;7.550;2023-03-26T00:55:41;99815.91;;;8.42;100.00
54808;BME280;40708;50.364;7.550;2023-03-26T00:58:07;99815.91;;;8.40;100.00
54808;BME280;40708;50.364;7.550;2023-03-26T01:00:35;99812.41;;;8.33;100.00
54808;BME280;40708;50.364;7.550;2023-03-26T01:03:03;99820.31;;;8.29;100.00
54808;BME280;40708;50.364;7.550;2023-03-26T01:07:59;99811.50;;;8.27;100.00
54808;BME280;40708;50.364;7.550;2023-03-26T01:10:25;99804.44;;;8.24;100.00
54808;BME280;40708;50.364;7.550;2023-03-26T01:12:50;99805.34;;;8.23;100.00
54808;BME280;40708;50.364;7.550;2023-03-26T01:15:16;99803.56;;;8.18;100.00
54808;BME280;40708;50.364;7.550;2023-03-26T01:17:41;99795.63;;;8.19;100.00
54808;BME280;40708;50.364;7.550;2023-03-26T01:20:16;99787.69;;;8.07;100.00
54808;BME280;40708;50.364;7.550;2023-03-26T01:22:49;99786.84;;;8.07;100.00
54808;BME280;40708;50.364;7.550;2023-03-26T01:25:18;99781.53;;;8.05;100.00
54808;BME280;40708;50.364;7.550;2023-03-26T01:27:51;99774.50;;;8.01;100.00
54808;BME280;40708;50.364;7.550;2023-03-26T01:30:26;99774.50;;;7.97;100.00
54808;BME280;40708;50.364;7.550;2023-03-26T01:35:33;99779.78;;;7.86;100.00
54808;BME280;40708;50.364;7.550;2023-03-26T01:38:15;99778.03;;;7.79;100.00
54808;BME280;40708;50.364;7.550;2023-03-26T01:40:48;99778.00;;;7.77;100.00
54808;BME280;40708;50.364;7.550;2023-03-26T01:45:46;99780.66;;;7.80;100.00
54808;BME280;40708;50.364;7.550;2023-03-26T01:48:14;99783.28;;;7.80;100.00
54808;BME280;40708;50.364;7.550;2023-03-26T01:50:39;99777.13;;;7.86;100.00
54808;BME280;40708;50.364;7.550;2023-03-26T01:53:06;99787.69;;;7.94;100.00
54808;BME280;40708;50.364;7.550;2023-03-26T02:03:58;99766.59;;;8.12;100.00
54808;BME280;40708;50.364;7.550;2023-03-26T02:06:37;99756.91;;;8.12;100.00
54808;BME280;40708;50.364;7.550;2023-03-26T02:09:06;99751.59;;;8.15;100.00
54808;BME280;40708;50.364;7.550;2023-03-26T02:11:34;99738.38;;;8.18;100.00
54808;BME280;40708;50.364;7.550;2023-03-26T02:14:03;99741.91;;;8.25;100.00
54808;BME280;40708;50.364;7.550;2023-03-26T02:16:28;99740.16;;;8.27;100.00
54808;BME280;40708;50.364;7.550;2023-03-26T02:18:54;99728.69;;;8.29;100.00
54808;BME280;40708;50.364;7.550;2023-03-26T02:21:22;99723.41;;;8.32;100.00
54808;BME280;40708;50.364;7.550;2023-03-26T02:23:52;99713.72;;;8.37;100.00
54808;BME280;40708;50.364;7.550;2023-03-26T02:26:22;99703.13;;;8.44;100.00
54808;BME280;40708;50.364;7.550;2023-03-26T02:28:48;99703.16;;;8.45;100.00
54808;BME280;40708;50.364;7.550;2023-03-26T02:31:14;99700.47;;;8.47;100.00
54808;BME280;40708;50.364;7.550;2023-03-26T02:33:41;99695.19;;;8.50;100.00
54808;BME280;40708;50.364;7.550;2023-03-26T02:36:09;99686.38;;;8.52;100.00
54808;BME280;40708;50.364;7.550;2023-03-26T02:38:36;99682.81;;;8.56;100.00
54808;BME280;40708;50.364;7.550;2023-03-26T02:41:02;99668.72;;;8.57;100.00
54808;BME280;40708;50.364;7.550;2023-03-26T02:43:27;99678.41;;;8.57;100.00
54808;BME280;40708;50.364;7.550;2023-03-26T02:45:53;99666.94;;;8.56;100.00
54808;BME280;40708;50.364;7.550;2023-03-26T02:48:18;99670.47;;;8.61;100.00
54808;BME280;40708;50.364;7.550;2023-03-26T02:50:45;99666.94;;;8.62;100.00
54808;BME280;40708;50.364;7.550;2023-03-26T02:53:10;99657.25;;;8.57;100.00
54808;BME280;40708;50.364;7.550;2023-03-26T02:55:37;99649.31;;;8.61;100.00
54808;BME280;40708;50.364;7.550;2023-03-26T02:58:03;99644.91;;;8.60;100.00
54808;BME280;40708;50.364;7.550;2023-03-26T03:00:28;99645.78;;;8.65;100.00
54808;BME280;40708;50.364;7.550;2023-03-26T03:02:54;99641.38;;;8.66;100.00
54808;BME280;40708;50.364;7.550;2023-03-26T03:05:22;99636.06;;;8.69;100.00
54808;BME280;40708;50.364;7.550;2023-03-26T03:07:51;99629.91;;;8.68;100.00
54808;BME280;40708;50.364;7.550;2023-03-26T03:10:16;99637.84;;;8.67;100.00
54808;BME280;40708;50.364;7.550;2023-03-26T03:12:46;99619.31;;;8.71;100.00
54808;BME280;40708;50.364;7.550;2023-03-26T03:15:12;99622.81;;;8.75;100.00
54808;BME280;40708;50.364;7.550;2023-03-26T03:17:38;99620.19;;;8.72;100.00
54808;BME280;40708;50.364;7.550;2023-03-26T03:20:05;99621.03;;;8.75;100.00
54808;BME280;40708;50.364;7.550;2023-03-26T03:22:33;99622.84;;;8.72;100.00
54808;BME280;40708;50.364;7.550;2023-03-26T03:24:58;99613.97;;;8.79;100.00
54808;BME280;40708;50.364;7.550;2023-03-26T03:27:24;99614.88;;;8.73;100.00
54808;BME280;40708;50.364;7.550;2023-03-26T03:29:50;99614.84;;;8.79;100.00
54808;BME280;40708;50.364;7.550;2023-03-26T03:32:18;99609.56;;;8.78;100.00
54808;BME280;40708;50.364;7.550;2023-03-26T03:34:43;99612.22;;;8.79;100.00
54808;BME280;40708;50.364;7.550;2023-03-26T03:37:08;99606.06;;;8.70;100.00
54808;BME280;40708;50.364;7.550;2023-03-26T03:39:33;99600.75;;;8.76;100.00
54808;BME280;40708;50.364;7.550;2023-03-26T03:41:59;99598.97;;;8.78;100.00
54808;BME280;40708;50.364;7.550;2023-03-26T03:44:24;99598.09;;;8.79;100.00
54808;BME280;40708;50.364;7.550;2023-03-26T03:46:49;99594.56;;;8.80;100.00
54808;BME280;40708;50.364;7.550;2023-03-26T03:49:18;99598.09;;;8.82;100.00
54808;BME280;40708;50.364;7.550;2023-03-26T03:51:43;99588.38;;;8.81;100.00
54808;BME280;40708;50.364;7.550;2023-03-26T03:54:08;99588.38;;;8.81;100.00
54808;BME280;40708;50.364;7.550;2023-03-26T03:56:34;99584.88;;;8.79;100.00
54808;BME280;40708;50.364;7.550;2023-03-26T03:59:00;99579.63;;;8.74;100.00
54808;BME280;40708;50.364;7.550;2023-03-26T04:01:25;99580.47;;;8.78;100.00
54808;BME280;40708;50.364;7.550;2023-03-26T04:03:51;99576.97;;;8.76;100.00
54808;BME280;40708;50.364;7.550;2023-03-26T04:06:16;99562.88;;;8.74;100.00
54808;BME280;40708;50.364;7.550;2023-03-26T04:08:43;99562.88;;;8.74;100.00
54808;BME280;40708;50.364;7.550;2023-03-26T04:11:09;99561.09;;;8.77;100.00
54808;BME280;40708;50.364;7.550;2023-03-26T04:13:34;99556.69;;;8.76;100.00
54808;BME280;40708;50.364;7.550;2023-03-26T04:16:00;99549.63;;;8.75;100.00
54808;BME280;40708;50.364;7.550;2023-03-26T04:18:25;99552.31;;;8.71;100.00
54808;BME280;40708;50.364;7.550;2023-03-26T04:20:51;99547.06;;;8.69;100.00
54808;BME280;40708;50.364;7.550;2023-03-26T04:23:19;99542.63;;;8.70;100.00
54808;BME280;40708;50.364;7.550;2023-03-26T04:25:49;99541.75;;;8.72;100.00
54808;BME280;40708;50.364;7.550;2023-03-26T04:28:44;99541.75;;;8.71;100.00
54808;BME280;40708;50.364;7.550;2023-03-26T04:31:13;99532.03;;;8.70;100.00
54808;BME280;40708;50.364;7.550;2023-03-26T04:33:43;99517.09;;;8.66;100.00
54808;BME280;40708;50.364;7.550;2023-03-26T04:36:14;99512.66;;;8.68;100.00
54808;BME280;40708;50.364;7.550;2023-03-26T04:38:43;99516.19;;;8.68;100.00
54808;BME280;40708;50.364;7.550;2023-03-26T04:41:12;99499.47;;;8.66;100.00
54808;BME280;40708;50.364;7.550;2023-03-26T04:43:38;99499.44;;;8.68;100.00
54808;BME280;40708;50.364;7.550;2023-03-26T04:46:07;99493.28;;;8.64;100.00
54808;BME280;40708;50.364;7.550;2023-03-26T04:48:35;99483.59;;;8.65;100.00
54808;BME280;40708;50.364;7.550;2023-03-26T04:51:00;99483.66;;;8.60;100.00
54808;BME280;40708;50.364;7.550;2023-03-26T04:53:26;99480.97;;;8.62;100.00
54808;BME280;40708;50.364;7.550;2023-03-26T04:58:59;99458.91;;;8.64;100.00
54808;BME280;40708;50.364;7.550;2023-03-26T05:01:25;99452.78;;;8.59;100.00
54808;BME280;40708;50.364;7.550;2023-03-26T05:03:53;99449.25;;;8.63;100.00
54808;BME280;40708;50.364;7.550;2023-03-26T05:06:18;99450.13;;;8.62;100.00
54808;BME280;40708;50.364;7.550;2023-03-26T05:08:44;99442.19;;;8.62;100.00
54808;BME280;40708;50.364;7.550;2023-03-26T05:11:09;99430.84;;;8.53;100.00
54808;BME280;40708;50.364;7.550;2023-03-26T05:13:36;99435.22;;;8.55;100.00
54808;BME280;40708;50.364;7.550;2023-03-26T05:16:01;99435.19;;;8.57;100.00
54808;BME280;40708;50.364;7.550;2023-03-26T05:18:26;99429.06;;;8.55;100.00
54808;BME280;40708;50.364;7.550;2023-03-26T05:20:52;99423.78;;;8.53;100.00
54808;BME280;40708;50.364;7.550;2023-03-26T05:23:17;99412.28;;;8.57;100.00
54808;BME280;40708;50.364;7.550;2023-03-26T05:25:42;99416.69;;;8.58;100.00
54808;BME280;40708;50.364;7.550;2023-03-26T05:28:08;99421.09;;;8.58;100.00
54808;BME280;40708;50.364;7.550;2023-03-26T05:30:34;99414.06;;;8.58;100.00
54808;BME280;40708;50.364;7.550;2023-03-26T05:33:00;99404.34;;;8.59;100.00
54808;BME280;40708;50.364;7.550;2023-03-26T05:35:27;99395.53;;;8.58;100.00
54808;BME280;40708;50.364;7.550;2023-03-26T05:37:52;99397.28;;;8.59;100.00
54808;BME280;40708;50.364;7.550;2023-03-26T05:40:17;99403.50;;;8.54;100.00
54808;BME280;40708;50.364;7.550;2023-03-26T05:42:44;99396.41;;;8.57;100.00
54808;BME280;40708;50.364;7.550;2023-03-26T05:45:11;99396.41;;;8.57;100.00
54808;BME280;40708;50.364;7.550;2023-03-26T05:47:36;99392.00;;;8.59;100.00
54808;BME280;40708;50.364;7.550;2023-03-26T05:50:02;99389.34;;;8.59;100.00
54808;BME280;40708;50.364;7.550;2023-03-26T05:52:28;99385.81;;;8.62;100.00
54808;BME280;40708;50.364;7.550;2023-03-26T05:54:53;99386.66;;;8.67;100.00
54808;BME280;40708;50.364;7.550;2023-03-26T05:57:18;99368.16;;;8.67;100.00
54808;BME280;40708;50.364;7.550;2023-03-26T05:59:43;99362.81;;;8.71;100.00
54808;BME280;40708;50.364;7.550;2023-03-26T06:02:10;99356.63;;;8.74;100.00
54808;BME280;40708;50.364;7.550;2023-03-26T06:04:35;99356.63;;;8.74;100.00
54808;BME280;40708;50.364;7.550;2023-03-26T06:07:06;99357.50;;;8.74;100.00
54808;BME280;40708;50.364;7.550;2023-03-26T06:09:35;99354.81;;;8.79;100.00
54808;BME280;40708;50.364;7.550;2023-03-26T06:12:03;99349.56;;;8.74;100.00
54808;BME280;40708;50.364;7.550;2023-03-26T06:14:29;99352.22;;;8.70;100.00
54808;BME280;40708;50.364;7.550;2023-03-26T06:16:55;99357.53;;;8.70;100.00
54808;BME280;40708;50.364;7.550;2023-03-26T06:19:20;99357.53;;;8.70;100.00
54808;BME280;40708;50.364;7.550;2023-03-26T06:21:45;99351.38;;;8.68;100.00
54808;BME280;40708;50.364;7.550;2023-03-26T06:24:11;99358.47;;;8.66;100.00
54808;BME280;40708;50.364;7.550;2023-03-26T06:26:36;99361.16;;;8.60;100.00
54808;BME280;40708;50.364;7.550;2023-03-26T06:29:01;99370.00;;;8.57;100.00
54808;BME280;40708;50.364;7.550;2023-03-26T06:31:27;99370.00;;;8.57;100.00
54808;BME280;40708;50.364;7.550;2023-03-26T06:33:52;99362.97;;;8.55;100.00
54808;BME280;40708;50.364;7.550;2023-03-26T06:36:17;99359.38;;;8.62;100.00
54808;BME280;40708;50.364;7.550;2023-03-26T06:38:43;99349.59;;;8.70;100.00
54808;BME280;40708;50.364;7.550;2023-03-26T06:41:08;99347.81;;;8.73;100.00
54808;BME280;40708;50.364;7.550;2023-03-26T06:43:33;99342.50;;;8.73;100.00
54808;BME280;40708;50.364;7.550;2023-03-26T06:46:00;99344.28;;;8.74;100.00
54808;BME280;40708;50.364;7.550;2023-03-26T06:48:26;99339.91;;;8.70;100.00
54808;BME280;40708;50.364;7.550;2023-03-26T06:50:51;99345.09;;;8.79;100.00
54808;BME280;40708;50.364;7.550;2023-03-26T06:53:16;99340.72;;;8.75;100.00
54808;BME280;40708;50.364;7.550;2023-03-26T06:55:41;99344.22;;;8.79;100.00
54808;BME280;40708;50.364;7.550;2023-03-26T06:58:10;99349.50;;;8.80;100.00
54808;BME280;40708;50.364;7.550;2023-03-26T07:00:35;99345.97;;;8.81;100.00
54808;BME280;40708;50.364;7.550;2023-03-26T07:03:02;99339.88;;;8.73;100.00
54808;BME280;40708;50.364;7.550;2023-03-26T07:05:28;99339.03;;;8.68;100.00
54808;BME280;40708;50.364;7.550;2023-03-26T07:07:53;99331.03;;;8.76;100.00
54808;BME280;40708;50.364;7.550;2023-03-26T07:10:18;99331.06;;;8.74;100.00
54808;BME280;40708;50.364;7.550;2023-03-26T07:12:43;99325.78;;;8.70;100.00
54808;BME280;40708;50.364;7.550;2023-03-26T07:15:10;99326.72;;;8.66;100.00
54808;BME280;40708;50.364;7.550;2023-03-26T07:17:35;99328.53;;;8.59;100.00
54808;BME280;40708;50.364;7.550;2023-03-26T07:20:01;99327.63;;;8.63;100.00
54808;BME280;40708;50.364;7.550;2023-03-26T07:22:27;99324.97;;;8.65;100.00
54808;BME280;40708;50.364;7.550;2023-03-26T07:24:52;99328.50;;;8.65;100.00
54808;BME280;40708;50.364;7.550;2023-03-26T07:30:43;99332.91;;;8.62;100.00
54808;BME280;40708;50.364;7.550;2023-03-26T07:36:25;99327.75;;;8.51;100.00
54808;BME280;40708;50.364;7.550;2023-03-26T07:39:20;99328.63;;;8.53;100.00
54808;BME280;40708;50.364;7.550;2023-03-26T07:42:03;99319.81;;;8.51;100.00
54808;BME280;40708;50.364;7.550;2023-03-26T07:47:26;99311.78;;;8.63;100.00
54808;BME280;40708;50.364;7.550;2023-03-26T07:49:53;99307.44;;;8.55;100.00
54808;BME280;40708;50.364;7.550;2023-03-26T07:52:19;99314.47;;;8.59;100.00
54808;BME280;40708;50.364;7.550;2023-03-26T07:54:45;99306.50;;;8.62;100.00
54808;BME280;40708;50.364;7.550;2023-03-26T08:00:23;99299.41;;;8.67;100.00
54808;BME280;40708;50.364;7.550;2023-03-26T08:03:09;99292.38;;;8.66;100.00
54808;BME280;40708;50.364;7.550;2023-03-26T08:09:15;99289.66;;;8.72;100.00
54808;BME280;40708;50.364;7.550;2023-03-26T08:12:02;99281.72;;;8.72;100.00
54808;BME280;40708;50.364;7.550;2023-03-26T08:14:54;99272.94;;;8.68;100.00
54808;BME280;40708;50.364;7.550;2023-03-26T08:17:46;99271.13;;;8.75;100.00
54808;BME280;40708;50.364;7.550;2023-03-26T08:23:11;99264.97;;;8.70;100.00
54808;BME280;40708;50.364;7.550;2023-03-26T08:31:02;99260.69;;;8.60;100.00
54808;BME280;40708;50.364;7.550;2023-03-26T08:33:28;99261.53;;;8.66;100.00
54808;BME280;40708;50.364;7.550;2023-03-26T08:35:54;99267.63;;;8.71;100.00
54808;BME280;40708;50.364;7.550;2023-03-26T08:38:20;99264.19;;;8.63;100.00
54808;BME280;40708;50.364;7.550;2023-03-26T08:43:39;99259.75;;;8.67;100.00
54808;BME280;40708;50.364;7.550;2023-03-26T08:46:39;99251.84;;;8.64;100.00
54808;BME280;40708;50.364;7.550;2023-03-26T09:00:29;99233.16;;;8.79;100.00
54808;BME280;40708;50.364;7.550;2023-03-26T09:03:07;99215.53;;;8.78;100.00
54808;BME280;40708;50.364;7.550;2023-03-26T09:11:54;99162.28;;;9.07;100.00
54808;BME280;40708;50.364;7.550;2023-03-26T09:14:41;99151.38;;;9.29;100.00
54808;BME280;40708;50.364;7.550;2023-03-26T09:17:17;99138.06;;;9.32;100.00
54808;BME280;40708;50.364;7.550;2023-03-26T09:19:56;99130.84;;;9.43;100.00
54808;BME280;40708;50.364;7.550;2023-03-26T09:22:52;99120.19;;;9.48;100.00
54808;BME280;40708;50.364;7.550;2023-03-26T09:31:11;99091.28;;;9.85;100.00
54808;BME280;40708;50.364;7.550;2023-03-26T09:33:53;99090.31;;;9.92;100.00
54808;BME280;40708;50.364;7.550;2023-03-26T09:37:06;99095.72;;;9.86;100.00
54808;BME280;40708;50.364;7.550;2023-03-26T09:39:16;99095.59;;;9.92;100.00
54808;BME280;40708;50.364;7.550;2023-03-26T09:42:07;99097.53;;;9.82;100.00
54808;BME280;40708;50.364;7.550;2023-03-26T09:44:58;99088.50;;;9.92;100.00
54808;BME280;40708;50.364;7.550;2023-03-26T09:56:24;99093.34;;;10.18;100.00
54808;BME280;40708;50.364;7.550;2023-03-26T10:04:44;99091.03;;;10.86;100.00
54808;BME280;40708;50.364;7.550;2023-03-26T10:12:41;99063.38;;;10.57;100.00
54808;BME280;40708;50.364;7.550;2023-03-26T10:15:30;99070.59;;;10.49;100.00
54808;BME280;40708;50.364;7.550;2023-03-26T10:21:04;99059.97;;;10.06;100.00
54808;BME280;40708;50.364;7.550;2023-03-26T10:26:36;99084.22;;;9.85;100.00
54808;BME280;40708;50.364;7.550;2023-03-26T10:29:17;99075.34;;;9.88;100.00
54808;BME280;40708;50.364;7.550;2023-03-26T10:34:52;99073.66;;;9.84;100.00
54808;BME280;40708;50.364;7.550;2023-03-26T10:37:43;99068.53;;;9.73;100.00
54808;BME280;40708;50.364;7.550;2023-03-26T10:40:15;99066.56;;;9.84;100.00
54808;BME280;40708;50.364;7.550;2023-03-26T10:46:07;99057.00;;;9.77;100.00
54808;BME280;40708;50.364;7.550;2023-03-26T10:51:34;99047.50;;;9.66;100.00
54808;BME280;40708;50.364;7.550;2023-03-26T10:54:13;99056.03;;;9.81;100.00
54808;BME280;40708;50.364;7.550;2023-03-26T10:56:43;99062.06;;;9.89;100.00
54808;BME280;40708;50.364;7.550;2023-03-26T10:59:12;99068.69;;;10.14;100.00
54808;BME280;40708;50.364;7.550;2023-03-26T11:01:46;99062.16;;;10.31;100.00
54808;BME280;40708;50.364;7.550;2023-03-26T11:04:25;99059.50;;;10.32;100.00
54808;BME280;40708;50.364;7.550;2023-03-26T11:07:11;99050.28;;;10.50;100.00
54808;BME280;40708;50.364;7.550;2023-03-26T11:09:56;99057.41;;;10.48;100.00
54808;BME280;40708;50.364;7.550;2023-03-26T11:12:45;99044.44;;;10.34;100.00
54808;BME280;40708;50.364;7.550;2023-03-26T11:15:26;99045.59;;;10.21;100.00
54808;BME280;40708;50.364;7.550;2023-03-26T11:18:01;99055.03;;;10.34;100.00
54808;BME280;40708;50.364;7.550;2023-03-26T11:23:25;99055.25;;;10.65;100.00
54808;BME280;40708;50.364;7.550;2023-03-26T11:26:04;99035.84;;;10.63;100.00
54808;BME280;40708;50.364;7.550;2023-03-26T11:31:30;99028.81;;;10.99;100.00
54808;BME280;40708;50.364;7.550;2023-03-26T11:34:03;99022.31;;;11.12;100.00
54808;BME280;40708;50.364;7.550;2023-03-26T11:36:37;99016.50;;;10.98;100.00
54808;BME280;40708;50.364;7.550;2023-03-26T11:39:09;99017.38;;;10.97;100.00
54808;BME280;40708;50.364;7.550;2023-03-26T11:41:38;99009.22;;;11.04;100.00
54808;BME280;40708;50.364;7.550;2023-03-26T11:44:26;99014.94;;;11.24;100.00
54808;BME280;40708;50.364;7.550;2023-03-26T11:46:55;99003.91;;;11.40;100.00
54808;BME280;40708;50.364;7.550;2023-03-26T11:49:26;98981.41;;;11.54;100.00
54808;BME280;40708;50.364;7.550;2023-03-26T11:51:53;98984.34;;;11.77;100.00
54808;BME280;40708;50.364;7.550;2023-03-26T11:54:19;98970.50;;;11.97;100.00
54808;BME280;40708;50.364;7.550;2023-03-26T11:56:49;98963.00;;;12.11;100.00
54808;BME280;40708;50.364;7.550;2023-03-26T11:59:26;98958.59;;;12.10;100.00
54808;BME280;40708;50.364;7.550;2023-03-26T12:01:56;98954.75;;;12.49;100.00
54808;BME280;40708;50.364;7.550;2023-03-26T12:04:42;98946.75;;;12.22;100.00
54808;BME280;40708;50.364;7.550;2023-03-26T12:07:20;98945.69;;;12.27;100.00
54808;BME280;40708;50.364;7.550;2023-03-26T12:09:54;98932.16;;;12.63;100.00
54808;BME280;40708;50.364;7.550;2023-03-26T12:12:21;98928.16;;;13.30;100.00
54808;BME280;40708;50.364;7.550;2023-03-26T12:14:49;98896.66;;;13.42;100.00
54808;BME280;40708;50.364;7.550;2023-03-26T12:17:35;98888.81;;;13.38;100.00
54808;BME280;40708;50.364;7.550;2023-03-26T12:20:41;98881.03;;;13.32;100.00
54808;BME280;40708;50.364;7.550;2023-03-26T12:23:34;98880.22;;;13.30;100.00
54808;BME280;40708;50.364;7.550;2023-03-26T12:26:14;98886.34;;;13.32;100.00
54808;BME280;40708;50.364;7.550;2023-03-26T12:28:44;98879.69;;;13.20;100.00
54808;BME280;40708;50.364;7.550;2023-03-26T12:31:11;98874.41;;;13.19;100.00
54808;BME280;40708;50.364;7.550;2023-03-26T12:33:42;98879.91;;;13.63;100.00
54808;BME280;40708;50.364;7.550;2023-03-26T12:36:21;98869.06;;;13.68;100.00
54808;BME280;40708;50.364;7.550;2023-03-26T12:38:50;98852.59;;;14.03;100.00
54808;BME280;40708;50.364;7.550;2023-03-26T12:41:20;98858.75;;;13.82;100.00
54808;BME280;40708;50.364;7.550;2023-03-26T12:44:20;98855.41;;;13.77;100.00
54808;BME280;40708;50.364;7.550;2023-03-26T12:46:48;98849.00;;;13.81;100.00
54808;BME280;40708;50.364;7.550;2023-03-26T12:49:18;98875.66;;;13.81;100.00
54808;BME280;40708;50.364;7.550;2023-03-26T13:05:31;98842.28;;;14.17;100.00
54808;BME280;40708;50.364;7.550;2023-03-26T13:08:24;98839.22;;;14.05;100.00
54808;BME280;40708;50.364;7.550;2023-03-26T13:13:58;98849.34;;;14.18;100.00
54808;BME280;40708;50.364;7.550;2023-03-26T13:32:13;98856.72;;;13.42;100.00
54808;BME280;40708;50.364;7.550;2023-03-26T13:37:37;98871.94;;;12.86;100.00
54808;BME280;40708;50.364;7.550;2023-03-26T13:48:39;98882.56;;;11.75;100.00
54808;BME280;40708;50.364;7.550;2023-03-26T13:51:11;98889.78;;;11.70;100.00
54808;BME280;40708;50.364;7.550;2023-03-26T13:53:57;98884.59;;;11.66;100.00
54808;BME280;40708;50.364;7.550;2023-03-26T13:56:29;98881.81;;;11.70;100.00
54808;BME280;40708;50.364;7.550;2023-03-26T13:59:10;98876.38;;;11.75;100.00
54808;BME280;40708;50.364;7.550;2023-03-26T14:01:46;98874.66;;;11.74;100.00
54808;BME280;40708;50.364;7.550;2023-03-26T14:04:20;98900.72;;;11.58;100.00
54808;BME280;40708;50.364;7.550;2023-03-26T14:07:15;98910.66;;;11.19;100.00
54808;BME280;40708;50.364;7.550;2023-03-26T14:10:14;98918.72;;;11.15;100.00
54808;BME280;40708;50.364;7.550;2023-03-26T14:12:55;98926.66;;;11.16;100.00
54808;BME280;40708;50.364;7.550;2023-03-26T14:15:30;98923.28;;;11.10;100.00
54808;BME280;40708;50.364;7.550;2023-03-26T14:23:36;98931.78;;;11.24;100.00
54808;BME280;40708;50.364;7.550;2023-03-26T14:31:27;98934.38;;;10.92;100.00
54808;BME280;40708;50.364;7.550;2023-03-26T14:39:54;98945.00;;;10.15;100.00
54808;BME280;40708;50.364;7.550;2023-03-26T14:42:52;98953.91;;;10.12;100.00
54808;BME280;40708;50.364;7.550;2023-03-26T14:51:22;98963.72;;;10.49;100.00
54808;BME280;40708;50.364;7.550;2023-03-26T14:54:11;98967.88;;;10.59;100.00
54808;BME280;40708;50.364;7.550;2023-03-26T14:56:47;98966.31;;;10.50;100.00
54808;BME280;40708;50.364;7.550;2023-03-26T15:07:49;98960.69;;;10.64;100.00
54808;BME280;40708;50.364;7.550;2023-03-26T15:30:20;99013.28;;;10.01;100.00
54808;BME280;40708;50.364;7.550;2023-03-26T15:36:12;99023.75;;;10.07;100.00
54808;BME280;40708;50.364;7.550;2023-03-26T15:42:12;99026.56;;;9.99;100.00
54808;BME280;40708;50.364;7.550;2023-03-26T15:55:38;99067.16;;;10.01;100.00
54808;BME280;40708;50.364;7.550;2023-03-26T15:58:18;99076.13;;;9.94;100.00
54808;BME280;40708;50.364;7.550;2023-03-26T16:00:53;99081.53;;;9.87;100.00
54808;BME280;40708;50.364;7.550;2023-03-26T16:03:38;99096.50;;;9.91;100.00
54808;BME280;40708;50.364;7.550;2023-03-26T16:06:36;99099.03;;;9.97;100.00
54808;BME280;40708;50.364;7.550;2023-03-26T16:11:51;99106.31;;;9.84;100.00
54808;BME280;40708;50.364;7.550;2023-03-26T16:14:21;99109.75;;;9.91;100.00
54808;BME280;40708;50.364;7.550;2023-03-26T16:16:53;99104.28;;;10.00;100.00
54808;BME280;40708;50.364;7.550;2023-03-26T16:21:56;99097.28;;;9.96;100.00
54808;BME280;40708;50.364;7.550;2023-03-26T16:24:28;99087.09;;;9.73;100.00
54808;BME280;40708;50.364;7.550;2023-03-26T16:27:27;99082.78;;;9.68;100.00
54808;BME280;40708;50.364;7.550;2023-03-26T16:30:27;99090.91;;;9.57;100.00
54808;BME280;40708;50.364;7.550;2023-03-26T16:32:56;99088.19;;;9.62;100.00
54808;BME280;40708;50.364;7.550;2023-03-26T16:35:52;99098.75;;;9.63;100.00
54808;BME280;40708;50.364;7.550;2023-03-26T16:38:24;99111.06;;;9.66;100.00
54808;BME280;40708;50.364;7.550;2023-03-26T16:43:40;99136.00;;;9.52;100.00
54808;BME280;40708;50.364;7.550;2023-03-26T16:46:15;99135.13;;;9.52;100.00
54808;BME280;40708;50.364;7.550;2023-03-26T16:49:14;99138.72;;;9.46;100.00
54808;BME280;40708;50.364;7.550;2023-03-26T16:52:09;99143.25;;;9.40;100.00
54808;BME280;40708;50.364;7.550;2023-03-26T16:54:41;99155.66;;;9.36;100.00
54808;BME280;40708;50.364;7.550;2023-03-26T16:57:34;99165.38;;;9.36;100.00
54808;BME280;40708;50.364;7.550;2023-03-26T17:02:47;99173.50;;;9.22;100.00
54808;BME280;40708;50.364;7.550;2023-03-26T17:05:34;99183.31;;;9.16;100.00
54808;BME280;40708;50.364;7.550;2023-03-26T17:08:08;99185.22;;;9.06;100.00
54808;BME280;40708;50.364;7.550;2023-03-26T17:13:16;99193.31;;;8.92;100.00
54808;BME280;40708;50.364;7.550;2023-03-26T17:15:58;99194.28;;;8.88;100.00
54808;BME280;40708;50.364;7.550;2023-03-26T17:18:58;99193.50;;;8.80;100.00